createdAt,value
2019-04-28T00:00:56.562Z,4.50
2019-04-28T00:03:26.150Z,6.27
2019-04-28T00:05:55.667Z,5.07
2019-04-28T00:08:25.161Z,5.60
2019-04-28T00:10:54.685Z,5.00
2019-04-28T00:13:24.587Z,5.80
2019-04-28T00:15:54.652Z,5.60
2019-04-28T00:18:24.830Z,5.77
2019-04-28T00:21:12.187Z,5.70
2019-04-28T00:24:01.744Z,5.90
2019-04-28T00:26:38.555Z,7.00
2019-04-28T00:29:08.055Z,6.10
2019-04-28T00:31:37.560Z,6.93
2019-04-28T00:34:07.105Z,7.87
2019-04-28T00:36:36.799Z,6.00
2019-04-28T00:39:07.654Z,7.00
2019-04-28T00:41:37.166Z,7.33
2019-04-28T00:44:06.890Z,7.23
2019-04-28T00:46:37.299Z,7.40
2019-04-28T00:49:06.817Z,6.70
2019-04-28T00:51:36.314Z,7.70
2019-04-28T00:54:05.870Z,8.40
2019-04-28T00:56:35.818Z,7.90
2019-04-28T00:59:05.319Z,7.90
2019-04-28T01:01:44.270Z,8.50
2019-04-28T01:04:13.833Z,8.77
2019-04-28T01:06:43.354Z,8.40
2019-04-28T01:09:13.150Z,8.10
2019-04-28T01:11:42.783Z,7.80
2019-04-28T01:14:12.639Z,8.83
2019-04-28T01:16:49.836Z,8.40
2019-04-28T01:19:26.606Z,9.10
2019-04-28T01:22:12.653Z,7.90
2019-04-28T01:24:42.359Z,9.07
2019-04-28T01:27:30.803Z,9.30
2019-04-28T01:30:07.820Z,9.27
2019-04-28T01:32:39.991Z,10.13
2019-04-28T01:35:09.715Z,9.20
2019-04-28T01:37:40.753Z,9.97
2019-04-28T01:40:10.974Z,10.20
2019-04-28T01:42:41.268Z,9.27
2019-04-28T01:45:11.093Z,10.47
2019-04-28T01:47:40.657Z,10.27
2019-04-28T01:50:10.377Z,9.67
2019-04-28T01:52:40.084Z,10.83
2019-04-28T01:55:10.259Z,10.87
2019-04-28T01:57:40.239Z,10.37
2019-04-28T02:00:22.149Z,10.97
2019-04-28T02:02:43.640Z,9.80
2019-04-28T02:05:13.212Z,11.03
2019-04-28T02:07:42.704Z,10.40
2019-04-28T02:10:12.510Z,11.30
2019-04-28T02:12:42.038Z,10.30
2019-04-28T02:15:11.650Z,10.90
2019-04-28T02:17:41.198Z,9.93
2019-04-28T02:20:11.131Z,11.07
2019-04-28T02:22:50.075Z,10.00
2019-04-28T02:25:21.392Z,11.10
2019-04-28T02:27:51.025Z,10.10
2019-04-28T02:30:26.548Z,10.40
2019-04-28T02:32:52.025Z,10.27
2019-04-28T02:35:21.623Z,9.40
2019-04-28T02:37:51.161Z,10.23
2019-04-28T02:40:20.939Z,9.23
2019-04-28T02:42:52.177Z,9.83
2019-04-28T02:45:22.152Z,8.37
2019-04-28T02:47:53.611Z,8.43
2019-04-28T02:50:47.835Z,8.50
2019-04-28T02:53:23.036Z,7.80
2019-04-28T02:55:52.544Z,9.20
2019-04-28T02:58:22.582Z,8.20
2019-04-28T03:01:09.421Z,9.27
2019-04-28T03:03:23.778Z,9.10
2019-04-28T03:05:54.107Z,8.07
2019-04-28T03:08:23.621Z,10.60
2019-04-28T03:10:53.500Z,9.00
2019-04-28T03:13:23.013Z,9.13
2019-04-28T03:15:52.499Z,9.57
2019-04-28T03:18:22.027Z,9.10
2019-04-28T03:20:52.010Z,9.00
2019-04-28T03:23:21.889Z,8.47
2019-04-28T03:26:01.520Z,7.83
2019-04-28T03:29:05.316Z,8.83
2019-04-28T03:32:28.801Z,8.20
2019-04-28T03:34:52.956Z,7.10
2019-04-28T03:37:23.479Z,7.77
2019-04-28T03:39:50.583Z,7.70
2019-04-28T03:42:21.639Z,7.57
2019-04-28T03:44:51.515Z,7.47
2019-04-28T03:47:22.954Z,6.60
2019-04-28T03:49:52.451Z,7.50
2019-04-28T03:52:22.095Z,6.90
2019-04-28T03:54:51.635Z,6.90
2019-04-28T03:57:22.009Z,6.83
2019-04-28T03:59:51.723Z,7.20
2019-04-28T04:02:23.666Z,6.90
2019-04-28T04:04:53.104Z,7.83
2019-04-28T04:07:22.698Z,6.60
2019-04-28T04:10:07.871Z,5.97
2019-04-28T04:12:43.255Z,6.63
2019-04-28T04:15:41.255Z,6.50
2019-04-28T04:18:15.223Z,5.73
2019-04-28T04:20:44.715Z,6.40
2019-04-28T04:23:14.207Z,6.53
2019-04-28T04:25:43.743Z,5.30
2019-04-28T04:28:13.235Z,6.77
2019-04-28T04:30:43.110Z,6.63
2019-04-28T04:33:12.612Z,5.43
2019-04-28T04:35:43.703Z,6.07
2019-04-28T04:38:13.467Z,5.70
2019-04-28T04:40:42.965Z,5.70
2019-04-28T04:43:12.651Z,6.03
2019-04-28T04:45:42.537Z,5.90
2019-04-28T04:48:12.408Z,4.90
2019-04-28T04:50:41.923Z,6.63
2019-04-28T04:53:11.447Z,6.03
2019-04-28T04:55:41.132Z,5.90
2019-04-28T04:58:10.884Z,5.33
2019-04-28T05:01:00.756Z,6.37
2019-04-28T05:03:33.403Z,5.70
2019-04-28T05:06:04.618Z,6.07
2019-04-28T05:08:34.498Z,5.20
2019-04-28T05:11:04.000Z,5.60
2019-04-28T05:13:33.539Z,5.63
2019-04-28T05:16:03.034Z,4.90
2019-04-28T05:18:32.998Z,5.87
2019-04-28T05:21:02.503Z,6.00
2019-04-28T05:23:47.110Z,5.33
2019-04-28T05:26:16.963Z,7.77
2019-04-28T05:28:51.553Z,5.40
2019-04-28T05:31:23.392Z,6.40
2019-04-28T05:33:49.859Z,5.20
2019-04-28T05:36:20.417Z,6.07
2019-04-28T05:38:49.938Z,5.37
2019-04-28T05:41:19.664Z,6.33
2019-04-28T05:43:50.459Z,6.10
2019-04-28T05:46:20.015Z,7.20
2019-04-28T05:49:13.343Z,5.87
2019-04-28T05:51:43.971Z,5.67
2019-04-28T05:54:35.170Z,5.20
2019-04-28T05:57:30.577Z,4.30
2019-04-28T06:00:25.847Z,4.70
2019-04-28T06:02:56.827Z,6.03
2019-04-28T06:05:26.555Z,4.70
2019-04-28T06:08:06.711Z,4.87
2019-04-28T06:10:36.217Z,5.20
2019-04-28T06:13:05.714Z,5.23
2019-04-28T06:15:35.254Z,4.80
2019-04-28T06:18:04.754Z,5.13
2019-04-28T06:20:34.278Z,4.80
2019-04-28T06:23:03.777Z,5.03
2019-04-28T06:25:33.270Z,5.73
2019-04-28T06:28:02.830Z,5.40
2019-04-28T06:30:32.346Z,4.57
2019-04-28T06:33:08.217Z,5.33
2019-04-28T06:35:33.014Z,5.10
2019-04-28T06:38:02.556Z,4.47
2019-04-28T06:40:32.023Z,4.23
2019-04-28T06:43:01.561Z,4.63
2019-04-28T06:45:31.459Z,3.77
2019-04-28T06:48:01.113Z,4.93
2019-04-28T06:50:30.607Z,4.57
2019-04-28T06:53:02.768Z,4.20
2019-04-28T06:55:31.490Z,4.40
2019-04-28T06:58:01.000Z,4.73
2019-04-28T07:00:30.907Z,5.30
2019-04-28T07:03:00.535Z,5.10
2019-04-28T07:05:30.040Z,5.47
2019-04-28T07:07:59.596Z,5.53
2019-04-28T07:10:29.654Z,7.10
2019-04-28T07:12:59.198Z,6.43
2019-04-28T07:15:28.743Z,5.30
2019-04-28T07:17:58.230Z,6.40
2019-04-28T07:20:37.647Z,6.40
2019-04-28T07:23:08.644Z,6.80
2019-04-28T07:25:38.171Z,6.40
2019-04-28T07:28:07.722Z,5.80
2019-04-28T07:30:39.010Z,5.67
2019-04-28T07:33:09.687Z,5.77
2019-04-28T07:35:39.211Z,6.47
2019-04-28T07:38:08.734Z,6.80
2019-04-28T07:40:38.295Z,6.00
2019-04-28T07:43:07.783Z,6.47
2019-04-28T07:45:37.319Z,6.57
2019-04-28T07:48:06.842Z,6.70
2019-04-28T07:50:36.342Z,6.80
2019-04-28T07:53:30.869Z,6.87
2019-04-28T07:56:00.406Z,7.33
2019-04-28T07:58:29.925Z,7.63
2019-04-28T08:00:59.446Z,7.27
2019-04-28T08:03:28.982Z,7.60
2019-04-28T08:05:58.546Z,8.33
2019-04-28T08:08:28.395Z,7.27
2019-04-28T08:10:57.923Z,7.07
2019-04-28T08:13:27.820Z,7.03
2019-04-28T08:15:57.336Z,7.07
2019-04-28T08:18:26.862Z,5.40
2019-04-28T08:20:56.409Z,5.63
2019-04-28T08:23:25.922Z,4.90
2019-04-28T08:25:55.426Z,4.33
2019-04-28T08:28:24.955Z,5.83
2019-04-28T08:30:54.464Z,4.90
2019-04-28T08:33:33.350Z,4.63
2019-04-28T08:36:02.978Z,5.00
2019-04-28T08:38:32.524Z,4.90
2019-04-28T08:41:02.024Z,5.60
2019-04-28T08:43:31.566Z,6.10
2019-04-28T08:46:01.219Z,5.43
2019-04-28T08:48:30.715Z,5.10
2019-04-28T08:51:00.251Z,5.20
2019-04-28T08:53:29.756Z,3.90
2019-04-28T08:55:59.274Z,4.10
2019-04-28T08:58:28.770Z,4.93
2019-04-28T09:00:58.669Z,3.97
2019-04-28T09:03:28.207Z,4.90
2019-04-28T09:05:57.829Z,4.77
2019-04-28T09:08:27.688Z,5.10
2019-04-28T09:10:57.227Z,4.50
2019-04-28T09:13:26.761Z,4.33
2019-04-28T09:15:56.306Z,4.90
2019-04-28T09:18:25.826Z,4.90
2019-04-28T09:20:55.610Z,3.80
2019-04-28T09:23:25.074Z,4.27
2019-04-28T09:25:54.596Z,4.50
2019-04-28T09:28:24.141Z,5.13
2019-04-28T09:30:53.688Z,4.67
2019-04-28T09:33:23.550Z,5.07
2019-04-28T09:35:53.079Z,4.20
2019-04-28T09:38:22.608Z,4.17
2019-04-28T09:40:52.159Z,4.10
2019-04-28T09:43:43.411Z,4.50
2019-04-28T09:46:25.122Z,4.40
2019-04-28T09:48:54.715Z,3.70
2019-04-28T09:51:25.220Z,3.90
2019-04-28T09:53:54.755Z,4.80
2019-04-28T09:56:24.359Z,4.53
2019-04-28T09:58:54.440Z,4.67
2019-04-28T10:01:24.033Z,5.30
2019-04-28T10:03:53.483Z,4.57
2019-04-28T10:06:23.022Z,4.50
2019-04-28T10:08:52.844Z,4.60
2019-04-28T10:11:30.280Z,4.70
2019-04-28T10:13:56.868Z,4.90
2019-04-28T10:16:25.235Z,4.40
2019-04-28T10:18:54.726Z,5.53
2019-04-28T10:21:24.218Z,4.40
2019-04-28T10:23:53.745Z,4.57
2019-04-28T10:26:23.286Z,4.50
2019-04-28T10:28:53.203Z,4.90
2019-04-28T10:31:22.738Z,4.33
2019-04-28T10:33:55.911Z,4.43
2019-04-28T10:36:25.415Z,5.40
2019-04-28T10:38:57.190Z,5.07
2019-04-28T10:41:34.049Z,5.17
2019-04-28T10:44:03.567Z,5.00
2019-04-28T10:46:33.087Z,4.70
2019-04-28T10:49:02.609Z,5.10
2019-04-28T10:51:32.135Z,4.90
2019-04-28T10:54:01.691Z,5.50
2019-04-28T10:56:31.227Z,5.27
2019-04-28T10:59:01.258Z,5.20
2019-04-28T11:01:30.835Z,5.30
2019-04-28T11:04:03.359Z,5.03
2019-04-28T11:06:33.042Z,5.17
2019-04-28T11:09:30.079Z,4.80
2019-04-28T11:11:51.634Z,4.20
2019-04-28T11:14:21.149Z,4.73
2019-04-28T11:16:50.662Z,5.37
2019-04-28T11:19:20.182Z,5.07
2019-04-28T11:21:50.080Z,5.20
2019-04-28T11:24:19.587Z,5.30
2019-04-28T11:26:49.099Z,6.20
2019-04-28T11:29:19.378Z,4.63
2019-04-28T11:31:48.918Z,4.67
2019-04-28T11:34:27.565Z,5.57
2019-04-28T11:36:57.102Z,4.67
2019-04-28T11:39:32.434Z,5.83
2019-04-28T11:42:01.959Z,5.50
2019-04-28T11:44:31.482Z,4.93
2019-04-28T11:47:01.098Z,5.37
2019-04-28T11:49:30.626Z,5.07
2019-04-28T11:52:00.195Z,5.20
2019-04-28T11:54:29.713Z,5.50
2019-04-28T11:56:59.220Z,5.93
2019-04-28T11:59:29.108Z,5.90
2019-04-28T12:01:59.047Z,5.47
2019-04-28T12:04:28.582Z,5.90
2019-04-28T12:06:58.094Z,6.10
2019-04-28T12:09:38.565Z,5.40
2019-04-28T12:12:13.343Z,5.60
2019-04-28T12:14:47.520Z,6.33
2019-04-28T12:17:38.592Z,4.60
2019-04-28T12:20:11.458Z,5.00
2019-04-28T12:22:41.098Z,5.20
2019-04-28T12:25:10.608Z,6.50
2019-04-28T12:27:40.106Z,9.53
2019-04-28T12:30:09.935Z,10.17
2019-04-28T12:32:39.584Z,10.67
2019-04-28T12:35:09.220Z,9.30
2019-04-28T12:37:38.730Z,9.77
2019-04-28T12:40:08.362Z,9.00
2019-04-28T12:42:38.379Z,8.87
2019-04-28T12:45:08.237Z,7.70
2019-04-28T12:47:37.768Z,7.67
2019-04-28T12:50:19.926Z,9.43
2019-04-28T12:52:49.440Z,8.47
2019-04-28T12:55:18.934Z,9.57
2019-04-28T12:57:48.478Z,9.67
2019-04-28T13:00:35.070Z,10.13
2019-04-28T13:03:17.906Z,11.87
2019-04-28T13:05:54.894Z,11.90
2019-04-28T13:08:19.767Z,11.00
2019-04-28T13:10:49.294Z,10.43
2019-04-28T13:13:18.830Z,10.03
2019-04-28T13:15:48.330Z,9.90
2019-04-28T13:18:18.019Z,10.77
2019-04-28T13:20:47.852Z,9.93
2019-04-28T13:23:17.432Z,11.07
2019-04-28T13:25:46.946Z,11.13
2019-04-28T13:28:16.466Z,11.33
2019-04-28T13:30:46.788Z,10.50
2019-04-28T13:33:16.314Z,11.43
2019-04-28T13:35:45.846Z,13.33
2019-04-28T13:38:15.496Z,9.50
2019-04-28T13:40:45.034Z,10.37
2019-04-28T13:43:14.547Z,9.73
2019-04-28T13:45:44.082Z,10.33
2019-04-28T13:48:13.790Z,9.90
2019-04-28T13:50:43.323Z,8.40
2019-04-28T13:53:13.012Z,7.97
2019-04-28T13:55:59.919Z,7.57
2019-04-28T13:58:38.517Z,8.20
2019-04-28T14:01:22.095Z,7.57
2019-04-28T14:04:07.446Z,7.03
2019-04-28T14:06:40.190Z,7.47
2019-04-28T14:09:16.418Z,7.10
2019-04-28T14:11:46.940Z,7.40
2019-04-28T14:14:16.446Z,7.17
2019-04-28T14:16:46.316Z,7.70
2019-04-28T14:19:15.892Z,7.17
2019-04-28T14:21:45.728Z,7.30
2019-04-28T14:24:15.231Z,9.27
2019-04-28T14:26:45.187Z,8.30
2019-04-28T14:29:14.772Z,8.20
2019-04-28T14:31:44.308Z,8.10
2019-04-28T14:34:13.809Z,15.20
2019-04-28T14:36:43.327Z,9.67
2019-04-28T14:39:13.035Z,8.33
2019-04-28T14:41:42.831Z,7.33
2019-04-28T14:44:12.375Z,8.20
2019-04-28T14:46:41.906Z,7.40
2019-04-28T14:49:11.606Z,7.80
2019-04-28T14:51:41.257Z,7.63
2019-04-28T14:54:11.102Z,6.50
2019-04-28T14:56:40.788Z,7.43
2019-04-28T14:59:11.103Z,7.47
2019-04-28T15:02:05.559Z,7.97
2019-04-28T15:04:53.196Z,7.20
2019-04-28T15:07:40.208Z,6.90
2019-04-28T15:10:19.061Z,7.20
2019-04-28T15:12:49.004Z,7.83
2019-04-28T15:15:20.181Z,6.93
2019-04-28T15:17:49.890Z,7.20
2019-04-28T15:20:19.866Z,7.53
2019-04-28T15:22:50.088Z,7.40
2019-04-28T15:25:19.594Z,7.97
2019-04-28T15:27:49.900Z,8.07
2019-04-28T15:30:19.399Z,7.47
2019-04-28T15:32:48.930Z,8.47
2019-04-28T15:35:18.430Z,8.97
2019-04-28T15:37:47.979Z,8.27
2019-04-28T15:40:17.485Z,8.77
2019-04-28T15:42:47.308Z,8.70
2019-04-28T15:45:17.235Z,10.03
2019-04-28T15:47:47.395Z,9.13
2019-04-28T15:50:17.411Z,10.00
2019-04-28T15:52:47.316Z,9.90
2019-04-28T15:55:21.520Z,8.93
2019-04-28T15:57:51.839Z,9.93
2019-04-28T16:00:21.701Z,9.30
2019-04-28T16:02:51.234Z,10.50
2019-04-28T16:05:20.762Z,11.00
2019-04-28T16:07:50.711Z,10.70
2019-04-28T16:10:20.381Z,11.73
2019-04-28T16:12:49.904Z,11.90
2019-04-28T16:15:19.727Z,10.73
2019-04-28T16:17:49.619Z,10.90
2019-04-28T16:20:19.153Z,9.47
2019-04-28T16:22:48.746Z,11.53
2019-04-28T16:25:18.274Z,9.73
2019-04-28T16:27:48.180Z,9.30
2019-04-28T16:30:18.567Z,8.30
2019-04-28T16:32:48.074Z,9.00
2019-04-28T16:35:17.894Z,9.10
2019-04-28T16:37:47.409Z,8.47
2019-04-28T16:40:16.990Z,10.07
2019-04-28T16:42:59.106Z,9.33
2019-04-28T16:45:29.134Z,11.03
2019-04-28T16:47:58.658Z,9.37
2019-04-28T16:50:28.538Z,8.80
2019-04-28T16:52:58.034Z,9.10
2019-04-28T16:55:34.620Z,9.97
2019-04-28T16:58:27.022Z,8.70
2019-04-28T17:01:18.252Z,9.30
2019-04-28T17:03:47.771Z,8.90
2019-04-28T17:06:17.450Z,9.10
2019-04-28T17:08:47.707Z,9.33
2019-04-28T17:11:17.210Z,8.53
2019-04-28T17:13:47.193Z,8.20
2019-04-28T17:16:17.034Z,9.17
2019-04-28T17:18:46.562Z,9.40
2019-04-28T17:21:16.059Z,9.03
2019-04-28T17:23:45.975Z,8.67
2019-04-28T17:26:15.775Z,8.83
2019-04-28T17:28:45.599Z,8.63
2019-04-28T17:31:15.236Z,7.80
2019-04-28T17:33:44.746Z,8.60
2019-04-28T17:36:14.254Z,10.30
2019-04-28T17:38:43.778Z,9.17
2019-04-28T17:41:13.332Z,10.00
2019-04-28T17:43:43.230Z,8.80
2019-04-28T17:46:13.123Z,8.67
2019-04-28T17:48:48.148Z,8.97
2019-04-28T17:51:18.656Z,9.13
2019-04-28T17:53:49.201Z,9.13
2019-04-28T17:56:19.196Z,11.00
2019-04-28T17:58:49.323Z,11.70
2019-04-28T18:01:50.191Z,10.50
2019-04-28T18:04:29.141Z,11.13
2019-04-28T18:07:02.550Z,11.00
2019-04-28T18:09:33.620Z,11.40
2019-04-28T18:12:04.162Z,12.00
2019-04-28T18:14:34.202Z,11.20
2019-04-28T18:17:25.655Z,12.70
2019-04-28T18:19:56.002Z,11.50
2019-04-28T18:22:25.690Z,11.83
2019-04-28T18:24:55.767Z,13.00
2019-04-28T18:27:25.948Z,11.47
2019-04-28T18:29:55.493Z,12.30
2019-04-28T18:32:50.559Z,13.23
2019-04-28T18:35:29.495Z,12.93
2019-04-28T18:38:35.035Z,13.37
2019-04-28T18:41:26.988Z,13.20
2019-04-28T18:44:10.705Z,13.57
2019-04-28T18:46:40.137Z,14.00
2019-04-28T18:49:09.660Z,14.00
2019-04-28T18:51:39.979Z,15.87
2019-04-28T18:54:09.621Z,14.53
2019-04-28T18:56:39.131Z,14.83
2019-04-28T18:59:08.662Z,15.47
2019-04-28T19:01:57.175Z,16.50
2019-04-28T19:04:27.455Z,15.17
2019-04-28T19:07:05.020Z,17.70
2019-04-28T19:09:50.250Z,18.90
2019-04-28T19:12:44.900Z,19.90
2019-04-28T19:15:36.405Z,18.00
2019-04-28T19:18:10.822Z,21.17
2019-04-28T19:20:40.738Z,21.23
2019-04-28T19:23:10.250Z,20.80
2019-04-28T19:25:39.911Z,21.70
2019-04-28T19:28:09.600Z,21.40
2019-04-28T19:30:39.253Z,20.57
2019-04-28T19:33:08.792Z,20.03
2019-04-28T19:35:38.296Z,20.07
2019-04-28T19:38:07.827Z,20.00
2019-04-28T19:40:37.334Z,20.10
2019-04-28T19:43:07.300Z,18.70
2019-04-28T19:45:38.474Z,18.30
2019-04-28T19:48:08.503Z,19.50
2019-04-28T19:50:37.998Z,19.17
2019-04-28T19:53:07.563Z,21.73
2019-04-28T19:55:41.387Z,20.47
2019-04-28T19:58:23.226Z,21.00
2019-04-28T20:01:06.206Z,21.57
2019-04-28T20:03:35.744Z,21.80
2019-04-28T20:06:05.244Z,20.33
2019-04-28T20:08:34.747Z,21.43
2019-04-28T20:11:04.268Z,22.20
2019-04-28T20:13:33.774Z,22.57
2019-04-28T20:16:03.623Z,21.57
2019-04-28T20:18:33.722Z,21.60
2019-04-28T20:21:03.343Z,22.10
2019-04-28T20:23:32.854Z,19.87
2019-04-28T20:26:02.730Z,19.37
2019-04-28T20:28:32.606Z,18.20
2019-04-28T20:31:02.607Z,17.53
2019-04-28T20:33:32.130Z,18.23
2019-04-28T20:36:06.898Z,17.57
2019-04-28T20:38:36.431Z,18.33
2019-04-28T20:41:14.734Z,18.23
2019-04-28T20:43:44.267Z,18.20
2019-04-28T20:46:14.138Z,18.37
2019-04-28T20:48:43.672Z,19.10
2019-04-28T20:51:13.498Z,18.80
2019-04-28T20:53:43.056Z,19.17
2019-04-28T20:56:12.566Z,17.73
2019-04-28T20:58:42.417Z,17.43
2019-04-28T21:01:12.059Z,18.93
2019-04-28T21:03:41.600Z,17.90
2019-04-28T21:06:11.130Z,17.20
2019-04-28T21:08:40.992Z,17.50
2019-04-28T21:11:10.648Z,18.40
2019-04-28T21:13:40.171Z,18.97
2019-04-28T21:16:09.696Z,19.37
2019-04-28T21:18:39.222Z,19.23
2019-04-28T21:21:08.735Z,18.83
2019-04-28T21:23:38.692Z,18.30
2019-04-28T21:26:08.219Z,18.50
2019-04-28T21:28:37.751Z,18.00
2019-04-28T21:31:07.292Z,18.80
2019-04-28T21:33:36.824Z,16.87
2019-04-28T21:36:06.326Z,17.20
2019-04-28T21:38:35.859Z,17.17
2019-04-28T21:41:05.392Z,19.03
2019-04-28T21:44:00.039Z,18.10
2019-04-28T21:46:37.755Z,17.87
2019-04-28T21:49:38.227Z,16.90
2019-04-28T21:52:07.754Z,17.73
2019-04-28T21:54:37.304Z,16.73
2019-04-28T21:57:06.834Z,18.23
2019-04-28T21:59:36.345Z,18.13
2019-04-28T22:02:05.926Z,17.10
2019-04-28T22:04:35.430Z,17.60
2019-04-28T22:07:05.058Z,17.10
2019-04-28T22:09:34.633Z,17.43
2019-04-28T22:12:04.091Z,17.77
2019-04-28T22:14:33.874Z,17.73
2019-04-28T22:17:03.802Z,18.37
2019-04-28T22:19:33.313Z,16.43
2019-04-28T22:22:02.813Z,15.80
2019-04-28T22:24:43.802Z,17.57
2019-04-28T22:27:15.225Z,16.13
2019-04-28T22:29:44.722Z,17.13
2019-04-28T22:32:14.252Z,17.80
2019-04-28T22:34:43.757Z,17.87
2019-04-28T22:37:13.287Z,16.00
2019-04-28T22:39:43.207Z,15.60
2019-04-28T22:42:12.846Z,15.70
2019-04-28T22:44:42.691Z,14.93
2019-04-28T22:47:12.186Z,16.70
2019-04-28T22:49:42.186Z,16.53
2019-04-28T22:52:11.683Z,14.77
2019-04-28T22:55:06.642Z,16.20
2019-04-28T22:58:04.010Z,14.77
2019-04-28T23:00:58.665Z,14.43
2019-04-28T23:03:49.497Z,14.20
2019-04-28T23:06:19.006Z,14.73
2019-04-28T23:08:48.547Z,15.00
2019-04-28T23:11:18.046Z,15.20
2019-04-28T23:13:47.566Z,14.33
2019-04-28T23:16:17.067Z,14.90
2019-04-28T23:18:46.697Z,15.53
2019-04-28T23:21:41.072Z,17.33
2019-04-28T23:24:10.703Z,15.80
2019-04-28T23:26:41.701Z,15.10
2019-04-28T23:29:11.601Z,15.30
2019-04-28T23:31:41.120Z,15.63
2019-04-28T23:34:10.626Z,15.80
2019-04-28T23:36:40.210Z,14.17
2019-04-28T23:39:09.731Z,14.90
2019-04-28T23:41:51.543Z,15.10
2019-04-28T23:44:21.124Z,13.53
2019-04-28T23:46:58.266Z,14.97
2019-04-28T23:49:28.458Z,15.60
2019-04-28T23:52:26.039Z,13.97
2019-04-28T23:54:58.959Z,15.10
2019-04-28T23:57:28.464Z,13.47
2019-04-28T23:59:57.989Z,15.00
